createdAt,value
2023-05-06T00:00:00.311Z,1.9
2023-05-06T00:05:00.347Z,2.2
2023-05-06T00:10:00.371Z,1.7
2023-05-06T00:15:00.368Z,2.1
2023-05-06T00:20:00.315Z,2.6
2023-05-06T00:25:00.373Z,2.2
2023-05-06T00:30:00.314Z,2.2
2023-05-06T00:35:00.354Z,2.2
2023-05-06T00:40:00.347Z,2.1
2023-05-06T00:45:00.384Z,2.5
2023-05-06T00:50:00.328Z,2.4
2023-05-06T00:55:00.351Z,2.9
2023-05-06T01:00:00.357Z,2.5
2023-05-06T01:05:00.394Z,2.4
2023-05-06T01:10:00.330Z,2.5
2023-05-06T01:15:00.371Z,2.4
2023-05-06T01:20:00.369Z,2.6
2023-05-06T01:25:00.373Z,4.0
2023-05-06T01:30:00.317Z,3.0
2023-05-06T01:35:00.362Z,2.7
2023-05-06T01:40:00.369Z,2.6
2023-05-06T01:45:00.386Z,2.5
2023-05-06T01:50:00.366Z,2.9
2023-05-06T01:55:00.358Z,2.8
2023-05-06T02:00:00.402Z,2.5
2023-05-06T02:05:00.322Z,3.2
2023-05-06T02:10:00.357Z,2.8
2023-05-06T02:15:00.370Z,3.0
2023-05-06T02:20:00.354Z,3.0
2023-05-06T02:25:00.351Z,3.7
2023-05-06T02:30:00.366Z,3.2
2023-05-06T02:35:00.348Z,3.6
2023-05-06T02:40:00.319Z,2.5
2023-05-06T02:45:00.354Z,2.9
2023-05-06T02:50:00.364Z,3.9
2023-05-06T02:55:00.373Z,3.3
2023-05-06T03:00:00.327Z,3.2
2023-05-06T03:05:00.379Z,3.4
2023-05-06T03:10:00.331Z,3.0
2023-05-06T03:15:00.370Z,2.9
2023-05-06T03:20:00.341Z,3.1
2023-05-06T03:25:00.354Z,2.9
2023-05-06T03:30:00.320Z,3.0
2023-05-06T03:35:00.358Z,3.4
2023-05-06T03:40:00.362Z,4.2
2023-05-06T03:45:00.361Z,3.8
2023-05-06T03:50:00.368Z,3.1
2023-05-06T03:55:00.337Z,2.6
2023-05-06T04:00:00.477Z,3.6
2023-05-06T04:05:00.321Z,2.8
2023-05-06T04:10:00.378Z,3.0
2023-05-06T04:15:00.361Z,2.9
2023-05-06T04:20:00.360Z,2.9
2023-05-06T04:25:00.354Z,3.2
2023-05-06T04:30:00.356Z,3.5
2023-05-06T04:35:00.364Z,3.3
2023-05-06T04:40:00.357Z,3.8
2023-05-06T04:45:00.328Z,3.4
2023-05-06T04:50:00.407Z,3.1
2023-05-06T04:55:00.321Z,3.8
2023-05-06T05:00:00.406Z,4.4
2023-05-06T05:05:00.373Z,4.2
2023-05-06T05:10:00.374Z,3.6
2023-05-06T05:15:00.321Z,3.7
2023-05-06T05:20:00.385Z,4.5
2023-05-06T05:25:00.324Z,4.6
2023-05-06T05:30:00.362Z,3.3
2023-05-06T05:35:00.379Z,3.9
2023-05-06T05:40:00.372Z,4.1
2023-05-06T05:45:00.331Z,3.3
2023-05-06T05:50:00.377Z,3.6
2023-05-06T05:55:00.322Z,4.0
2023-05-06T06:00:00.371Z,3.8
2023-05-06T06:05:00.599Z,3.4
2023-05-06T06:10:00.356Z,3.9
2023-05-06T06:15:00.319Z,4.5
2023-05-06T06:20:00.375Z,4.6
2023-05-06T06:25:00.353Z,4.4
2023-05-06T06:30:00.364Z,4.1
2023-05-06T06:35:00.357Z,5.3
2023-05-06T06:40:00.355Z,4.6
2023-05-06T06:45:00.324Z,4.4
2023-05-06T06:50:00.376Z,4.7
2023-05-06T06:55:00.372Z,4.6
2023-05-06T07:00:00.316Z,4.6
2023-05-06T07:05:00.408Z,4.4
2023-05-06T07:10:00.351Z,4.3
2023-05-06T07:15:00.364Z,4.1
2023-05-06T07:20:00.320Z,4.2
2023-05-06T07:25:00.356Z,4.7
2023-05-06T07:30:00.372Z,5.2
2023-05-06T07:35:00.390Z,4.8
2023-05-06T07:40:00.343Z,4.6
2023-05-06T07:45:00.376Z,5.3
2023-05-06T07:50:00.330Z,6.3
2023-05-06T07:55:00.362Z,5.0
2023-05-06T08:00:00.366Z,5.1
2023-05-06T08:05:00.352Z,4.9
2023-05-06T08:10:00.316Z,5.5
2023-05-06T08:15:00.366Z,5.0
2023-05-06T08:20:00.384Z,5.1
2023-05-06T08:25:00.378Z,5.0
2023-05-06T08:30:00.328Z,5.3
2023-05-06T08:35:00.390Z,4.9
2023-05-06T08:40:00.359Z,5.2
2023-05-06T08:45:00.373Z,5.8
2023-05-06T08:50:00.366Z,6.0
2023-05-06T08:55:00.371Z,5.5
2023-05-06T09:00:00.329Z,6.1
2023-05-06T09:05:00.359Z,5.5
2023-05-06T09:10:00.379Z,5.3
2023-05-06T09:15:00.369Z,5.8
2023-05-06T09:20:00.356Z,5.0
2023-05-06T09:25:00.388Z,5.6
2023-05-06T09:30:00.351Z,5.7
2023-05-06T09:35:00.373Z,5.5
2023-05-06T09:40:00.378Z,6.2
2023-05-06T09:45:01.914Z,6.6
2023-05-06T09:50:00.334Z,6.9
2023-05-06T09:55:00.390Z,7.4
2023-05-06T10:00:00.312Z,5.9
2023-05-06T10:05:00.606Z,5.6
2023-05-06T10:10:00.377Z,6.1
2023-05-06T10:15:00.376Z,5.8
2023-05-06T10:20:00.316Z,5.9
2023-05-06T10:25:00.365Z,6.5
2023-05-06T10:30:00.454Z,6.6
2023-05-06T10:35:00.373Z,6.2
2023-05-06T10:40:00.319Z,6.7
2023-05-06T10:45:00.416Z,6.5
2023-05-06T10:50:00.305Z,6.9
2023-05-06T10:55:00.372Z,5.4
2023-05-06T11:00:00.366Z,5.9
2023-05-06T11:05:00.476Z,6.7
2023-05-06T11:10:00.356Z,6.3
2023-05-06T11:15:00.664Z,7.3
2023-05-06T11:20:00.339Z,5.7
2023-05-06T11:25:00.357Z,6.7
2023-05-06T11:30:00.323Z,7.6
2023-05-06T11:35:00.384Z,6.6
2023-05-06T11:40:00.377Z,6.5
2023-05-06T11:45:00.326Z,6.5
2023-05-06T11:50:01.201Z,6.6
2023-05-06T11:55:00.327Z,6.3
2023-05-06T12:00:00.397Z,6.1
2023-05-06T12:05:00.599Z,6.0
2023-05-06T12:10:00.355Z,5.7
2023-05-06T12:15:00.324Z,6.4
2023-05-06T12:20:00.417Z,6.6
2023-05-06T12:25:00.321Z,7.0
2023-05-06T12:30:00.361Z,6.7
2023-05-06T12:35:00.388Z,6.1
2023-05-06T12:40:00.373Z,6.1
2023-05-06T12:45:00.331Z,5.5
2023-05-06T12:50:00.477Z,6.2
2023-05-06T12:55:00.320Z,5.8
2023-05-06T13:00:00.369Z,5.7
2023-05-06T13:05:00.383Z,5.7
2023-05-06T13:10:00.380Z,10.0
2023-05-06T13:15:00.322Z,6.5
2023-05-06T13:20:00.466Z,5.7
2023-05-06T13:25:00.371Z,6.5
2023-05-06T13:30:00.318Z,6.3
2023-05-06T13:35:00.361Z,6.4
2023-05-06T13:40:00.359Z,7.0
2023-05-06T13:45:00.394Z,6.4
2023-05-06T13:50:00.340Z,6.7
2023-05-06T13:55:00.381Z,5.8
2023-05-06T14:00:00.377Z,7.3
2023-05-06T14:05:00.406Z,5.9
2023-05-06T14:10:00.324Z,6.3
2023-05-06T14:15:00.412Z,5.9
2023-05-06T14:20:00.332Z,6.0
2023-05-06T14:25:00.436Z,6.6
2023-05-06T14:30:00.377Z,7.0
2023-05-06T14:35:00.370Z,6.6
2023-05-06T14:40:00.324Z,7.2
2023-05-06T14:45:00.371Z,7.4
2023-05-06T14:50:00.326Z,6.3
2023-05-06T14:55:00.384Z,6.6
2023-05-06T15:00:00.392Z,6.2
2023-05-06T15:05:02.349Z,5.9
2023-05-06T15:10:00.471Z,7.2
2023-05-06T15:15:00.370Z,6.6
2023-05-06T15:20:00.407Z,6.6
2023-05-06T15:25:00.350Z,5.5
2023-05-06T15:30:00.499Z,6.5
2023-05-06T15:35:00.380Z,6.7
2023-05-06T15:40:00.419Z,6.4
2023-05-06T15:45:00.363Z,6.5
2023-05-06T15:50:00.426Z,6.3
2023-05-06T15:55:00.366Z,7.7
2023-05-06T16:00:00.358Z,7.0
2023-05-06T16:05:00.423Z,7.8
2023-05-06T16:10:00.378Z,7.3
2023-05-06T16:15:00.382Z,7.1
2023-05-06T16:20:00.331Z,7.4
2023-05-06T16:25:00.387Z,8.6
2023-05-06T16:30:00.365Z,9.4
2023-05-06T16:35:00.567Z,9.2
2023-05-06T16:40:00.333Z,9.5
2023-05-06T16:45:00.377Z,9.1
2023-05-06T16:50:00.361Z,9.4
2023-05-06T16:55:00.379Z,9.4
2023-05-06T17:00:00.342Z,9.2
2023-05-06T17:05:00.383Z,9.2
2023-05-06T17:10:00.663Z,7.8
2023-05-06T17:15:00.396Z,9.2
2023-05-06T17:20:00.396Z,9.0
2023-05-06T17:25:00.356Z,9.5
2023-05-06T17:30:00.316Z,10.4
2023-05-06T17:35:00.389Z,9.4
2023-05-06T17:40:00.363Z,9.3
2023-05-06T17:45:00.355Z,9.3
2023-05-06T17:50:00.325Z,8.8
2023-05-06T17:55:14.827Z,10.0
2023-05-06T18:00:00.310Z,10.0
2023-05-06T18:05:00.378Z,9.9
2023-05-06T18:10:00.374Z,9.5
2023-05-06T18:15:00.395Z,9.4
2023-05-06T18:20:00.333Z,9.7
2023-05-06T18:25:00.383Z,9.4
2023-05-06T18:30:00.381Z,8.9
2023-05-06T18:35:00.378Z,10.2
2023-05-06T18:40:00.337Z,10.2
2023-05-06T18:45:00.417Z,9.6
2023-05-06T18:50:00.358Z,10.1
2023-05-06T18:55:00.372Z,9.8
2023-05-06T19:00:00.387Z,9.9
2023-05-06T19:05:00.407Z,9.1
2023-05-06T19:10:00.325Z,10.4
2023-05-06T19:15:00.398Z,10.9
2023-05-06T19:20:00.710Z,9.8
2023-05-06T19:25:00.375Z,10.3
2023-05-06T19:30:00.342Z,8.9
2023-05-06T19:35:00.384Z,8.9
2023-05-06T19:40:00.366Z,8.7
2023-05-06T19:45:00.382Z,9.8
2023-05-06T19:50:00.321Z,9.1
2023-05-06T19:55:00.385Z,8.3
2023-05-06T20:00:00.362Z,9.3
2023-05-06T20:05:00.736Z,9.3
2023-05-06T20:10:00.345Z,9.3
2023-05-06T20:15:00.383Z,9.8
2023-05-06T20:20:01.940Z,10.9
2023-05-06T20:25:00.369Z,9.4
2023-05-06T20:30:00.370Z,9.4
2023-05-06T20:35:00.445Z,10.2
2023-05-06T20:40:00.325Z,9.7
2023-05-06T20:45:00.416Z,9.1
2023-05-06T20:50:00.381Z,9.7
2023-05-06T20:55:00.379Z,11.1
2023-05-06T21:00:00.379Z,9.6
2023-05-06T21:05:00.363Z,9.6
2023-05-06T21:10:00.357Z,8.9
2023-05-06T21:15:00.331Z,11.3
2023-05-06T21:20:00.370Z,9.1
2023-05-06T21:25:00.336Z,8.6
2023-05-06T21:30:00.362Z,7.4
2023-05-06T21:35:00.348Z,8.5
2023-05-06T21:40:00.370Z,8.0
2023-05-06T21:45:00.320Z,8.2
2023-05-06T21:50:00.365Z,7.8
2023-05-06T21:55:00.372Z,8.0
2023-05-06T22:00:00.576Z,8.7
2023-05-06T22:05:00.313Z,9.2
2023-05-06T22:10:00.342Z,8.0
2023-05-06T22:15:00.368Z,7.9
2023-05-06T22:20:00.374Z,7.4
2023-05-06T22:25:00.356Z,7.2
2023-05-06T22:35:00.581Z,6.6
2023-05-06T22:40:00.588Z,7.3
2023-05-06T22:45:00.581Z,6.6
2023-05-06T22:50:00.596Z,7.0
2023-05-06T22:55:00.581Z,6.9
2023-05-06T23:00:00.580Z,6.1
2023-05-06T23:05:00.618Z,6.1
2023-05-06T23:10:00.581Z,6.4
2023-05-06T23:15:00.576Z,6.1
2023-05-06T23:20:00.592Z,5.8
2023-05-06T23:25:00.559Z,6.9
2023-05-06T23:30:00.595Z,6.0
2023-05-06T23:35:00.526Z,6.8
2023-05-06T23:40:00.598Z,5.9
2023-05-06T23:45:00.582Z,7.1
2023-05-06T23:50:00.619Z,6.7
2023-05-06T23:55:00.585Z,7.0
